Lockwood, California
Current Conditions -  °F | °C
As of 12:53 AM on Saturday 22 Nov 2014 (Local Time) from KPRB Reporting Station
Clear Clear  
Wind Chill: 44°   Ceiling: Unl
Heat Index: 44°   Visibility: 9mi
Dew Point: 41°   Wind: 3mph
Humidity: 89%   Direction: 120°ESE
Pressure: 30.17"   Gusts: NA
Location:  35.94°N, 121.08°W
Report Text: KPRB 220853Z AUTO 12003KT 9SM CLR 07/05 A3017 RMK AO2 SLP214 T00670050 50002 TSNO
Loading
Personal Weather Stations






























Interactive Weather Map New forecast layout! Learn more

10-Day Weather Forecast

Advertisements
Track Severe Weather on mobile